Terminal Aerodrome Forecast
Issued by NWS

Home | Current Version | Previous Version | Graphics & Text | Print | Product List | Glossary On
Versions: 1 2 3 4 5 6 7 8 9 10 11 12 13 14 15 16 17 18 19 20 21 22 23 24
000
FTUS43 KABR 272200 AAC
TAFMBG
TAF AMD
KMBG 272229Z 2722/2818 15011KT P6SM SCT100
     FM280200 12006KT P6SM SKC
      TEMPO 2809/2813 1SM BR
     FM281500 15014KT P6SM SKC=

USA.gov is the U.S. government's official web portal to all federal, state and local government web resources and services.